createdAt,value
2023-05-10T00:00:24.557Z,1119.00
2023-05-10T00:01:24.596Z,1108.00
2023-05-10T00:02:24.686Z,1116.00
2023-05-10T00:03:24.688Z,1131.00
2023-05-10T00:04:24.580Z,1128.00
2023-05-10T00:05:24.617Z,1111.00
2023-05-10T00:06:24.591Z,1121.00
2023-05-10T00:07:24.624Z,1140.00
2023-05-10T00:08:24.645Z,1141.00
2023-05-10T00:09:24.618Z,1133.00
2023-05-10T00:10:24.664Z,1130.00
2023-05-10T00:11:24.694Z,1125.00
2023-05-10T00:12:24.695Z,1122.00
2023-05-10T00:13:24.833Z,1135.00
2023-05-10T00:14:24.706Z,1141.00
2023-05-10T00:15:24.682Z,1141.00
2023-05-10T00:16:24.804Z,1148.00
2023-05-10T00:17:24.759Z,1123.00
2023-05-10T00:18:24.724Z,1143.00
2023-05-10T00:19:24.739Z,1138.00
2023-05-10T00:20:24.762Z,1136.00
2023-05-10T00:21:24.763Z,1134.00
2023-05-10T00:22:24.792Z,1138.00
2023-05-10T00:23:24.808Z,1139.00
2023-05-10T00:24:24.894Z,1149.00
2023-05-10T00:25:24.831Z,1140.00
2023-05-10T00:26:24.878Z,1139.00
2023-05-10T00:27:24.906Z,1143.00
2023-05-10T00:28:25.007Z,1145.00
2023-05-10T00:29:25.015Z,1143.00
2023-05-10T00:30:25.104Z,1145.00
2023-05-10T00:31:25.177Z,1157.00
2023-05-10T00:32:25.233Z,1151.00
2023-05-10T00:33:25.243Z,1162.00
2023-05-10T00:34:25.330Z,1156.00
2023-05-10T00:35:25.392Z,1153.00
2023-05-10T00:36:25.414Z,1163.00
2023-05-10T00:37:25.468Z,1150.00
2023-05-10T00:38:25.440Z,1155.00
2023-05-10T00:39:25.483Z,1141.00
2023-05-10T00:40:25.436Z,1148.00
2023-05-10T00:41:25.446Z,1158.00
2023-05-10T00:42:25.465Z,1161.00
2023-05-10T00:43:25.484Z,1170.00
2023-05-10T00:44:25.483Z,1166.00
2023-05-10T00:45:25.477Z,1178.00
2023-05-10T00:46:25.625Z,1178.00
2023-05-10T00:47:25.552Z,1159.00
2023-05-10T00:48:25.547Z,1162.00
2023-05-10T00:49:25.530Z,1167.00
2023-05-10T00:50:25.525Z,1158.00
2023-05-10T00:51:25.568Z,1170.00
2023-05-10T00:52:25.587Z,1160.00
2023-05-10T00:53:25.576Z,1167.00
2023-05-10T00:54:25.571Z,1167.00
2023-05-10T00:55:25.613Z,1174.00
2023-05-10T00:56:25.662Z,1182.00
2023-05-10T00:57:25.708Z,1176.00
2023-05-10T00:58:25.633Z,1174.00
2023-05-10T00:59:25.657Z,1183.00
2023-05-10T01:00:25.644Z,1173.00
2023-05-10T01:01:25.698Z,1176.00
2023-05-10T01:02:25.908Z,1178.00
2023-05-10T01:03:25.869Z,1182.00
2023-05-10T01:04:25.789Z,1173.00
2023-05-10T01:05:25.829Z,1184.00
2023-05-10T01:06:25.833Z,1176.00
2023-05-10T01:07:25.845Z,1178.00
2023-05-10T01:08:25.862Z,1180.00
2023-05-10T01:09:25.866Z,1181.00
2023-05-10T01:10:25.872Z,1180.00
2023-05-10T01:11:25.886Z,1186.00
2023-05-10T01:12:25.984Z,1192.00
2023-05-10T01:13:26.053Z,1170.00
2023-05-10T01:14:25.917Z,1180.00
2023-05-10T01:15:25.954Z,1179.00
2023-05-10T01:16:25.999Z,1184.00
2023-05-10T01:17:25.988Z,1178.00
2023-05-10T01:18:25.986Z,1186.00
2023-05-10T01:19:25.992Z,1184.00
2023-05-10T01:20:25.999Z,1173.00
2023-05-10T01:21:26.059Z,1193.00
2023-05-10T01:22:26.106Z,1184.00
2023-05-10T01:23:26.160Z,1198.00
2023-05-10T01:24:26.222Z,1181.00
2023-05-10T01:25:26.280Z,1179.00
2023-05-10T01:26:26.337Z,1196.00
2023-05-10T01:27:26.404Z,1199.00
2023-05-10T01:28:26.452Z,1191.00
2023-05-10T01:29:26.504Z,1187.00
2023-05-10T01:30:26.964Z,1185.00
2023-05-10T01:31:26.637Z,1190.00
2023-05-10T01:32:26.712Z,1200.00
2023-05-10T01:33:26.763Z,1201.00
2023-05-10T01:34:26.791Z,1209.00
2023-05-10T01:35:26.844Z,1181.00
2023-05-10T01:36:26.935Z,1204.00
2023-05-10T01:37:26.967Z,1210.00
2023-05-10T01:38:27.013Z,1197.00
2023-05-10T01:39:27.078Z,1194.00
2023-05-10T01:40:27.152Z,1199.00
2023-05-10T01:41:27.196Z,1199.00
2023-05-10T01:42:27.575Z,1213.00
2023-05-10T01:43:27.291Z,1196.00
2023-05-10T01:44:27.379Z,1203.00
2023-05-10T01:45:27.444Z,1201.00
2023-05-10T01:46:27.501Z,1187.00
2023-05-10T01:47:27.526Z,1199.00
2023-05-10T01:48:27.482Z,1210.00
2023-05-10T01:49:27.510Z,1208.00
2023-05-10T01:50:27.532Z,1207.00
2023-05-10T01:51:27.528Z,1196.00
2023-05-10T01:52:27.541Z,1200.00
2023-05-10T01:53:27.537Z,1209.00
2023-05-10T01:54:27.538Z,1202.00
2023-05-10T01:55:27.570Z,1208.00
2023-05-10T01:56:27.572Z,1211.00
2023-05-10T01:57:27.584Z,1201.00
2023-05-10T01:58:27.588Z,1201.00
2023-05-10T01:59:27.583Z,1206.00
2023-05-10T02:00:27.685Z,1197.00
2023-05-10T02:01:27.639Z,1208.00
2023-05-10T02:02:27.670Z,1205.00
2023-05-10T02:03:27.660Z,1207.00
2023-05-10T02:04:27.681Z,1208.00
2023-05-10T02:05:27.652Z,1207.00
2023-05-10T02:06:27.704Z,1201.00
2023-05-10T02:07:27.683Z,1203.00
2023-05-10T02:08:27.716Z,1202.00
2023-05-10T02:09:27.732Z,1199.00
2023-05-10T02:10:27.780Z,1198.00
2023-05-10T02:11:27.782Z,1191.00
2023-05-10T02:12:27.836Z,1206.00
2023-05-10T02:13:27.859Z,1212.00
2023-05-10T02:14:27.832Z,1215.00
2023-05-10T02:15:27.885Z,1214.00
2023-05-10T02:16:27.830Z,1207.00
2023-05-10T02:17:27.862Z,1205.00
2023-05-10T02:18:27.886Z,1209.00
2023-05-10T02:19:27.899Z,1205.00
2023-05-10T02:20:27.894Z,1222.00
2023-05-10T02:21:27.930Z,1221.00
2023-05-10T02:22:27.946Z,1211.00
2023-05-10T02:23:27.955Z,1213.00
2023-05-10T02:24:27.932Z,1212.00
2023-05-10T02:25:27.949Z,1193.00
2023-05-10T02:26:27.972Z,1204.00
2023-05-10T02:27:27.977Z,1207.00
2023-05-10T02:28:27.990Z,1214.00
2023-05-10T02:29:28.043Z,1214.00
2023-05-10T02:30:28.011Z,1189.00
2023-05-10T02:31:28.085Z,1210.00
2023-05-10T02:32:28.126Z,1207.00
2023-05-10T02:33:28.047Z,1212.00
2023-05-10T02:34:28.070Z,1208.00
2023-05-10T02:35:28.089Z,1218.00
2023-05-10T02:36:28.113Z,1203.00
2023-05-10T02:37:28.103Z,1206.00
2023-05-10T02:38:28.138Z,1213.00
2023-05-10T02:39:28.144Z,1204.00
2023-05-10T02:40:28.877Z,1199.00
2023-05-10T02:41:28.136Z,1201.00
2023-05-10T02:42:28.200Z,1215.00
2023-05-10T02:43:28.218Z,1214.00
2023-05-10T02:44:28.218Z,1206.00
2023-05-10T02:45:28.290Z,1195.00
2023-05-10T02:46:28.422Z,1206.00
2023-05-10T02:47:28.439Z,1210.00
2023-05-10T02:48:28.483Z,1204.00
2023-05-10T02:49:28.502Z,1211.00
2023-05-10T02:50:28.571Z,1213.00
2023-05-10T02:51:28.618Z,1212.00
2023-05-10T02:52:28.698Z,1207.00
2023-05-10T02:53:28.757Z,1205.00
2023-05-10T02:54:28.781Z,1211.00
2023-05-10T02:55:28.867Z,1206.00
2023-05-10T02:56:28.918Z,1207.00
2023-05-10T02:57:28.979Z,1205.00
2023-05-10T02:58:29.012Z,1211.00
2023-05-10T02:59:29.059Z,1207.00
2023-05-10T03:00:29.208Z,1198.00
2023-05-10T03:01:29.271Z,1198.00
2023-05-10T03:02:29.298Z,1210.00
2023-05-10T03:03:29.300Z,1214.00
2023-05-10T03:04:29.409Z,1225.00
2023-05-10T03:05:29.437Z,1215.00
2023-05-10T03:06:29.465Z,1211.00
2023-05-10T03:07:29.534Z,1206.00
2023-05-10T03:08:29.580Z,1203.00
2023-05-10T03:09:29.629Z,1206.00
2023-05-10T03:10:29.680Z,1201.00
2023-05-10T03:11:29.760Z,1199.00
2023-05-10T03:12:29.796Z,1211.00
2023-05-10T03:13:29.861Z,1203.00
2023-05-10T03:14:29.831Z,1206.00
2023-05-10T03:15:29.831Z,1205.00
2023-05-10T03:16:29.966Z,1208.00
2023-05-10T03:17:29.887Z,1203.00
2023-05-10T03:18:29.875Z,1203.00
2023-05-10T03:19:29.943Z,1208.00
2023-05-10T03:20:29.982Z,1192.00
2023-05-10T03:21:30.018Z,1204.00
2023-05-10T03:22:30.016Z,1210.00
2023-05-10T03:23:30.015Z,1208.00
2023-05-10T03:24:30.061Z,1208.00
2023-05-10T03:25:30.052Z,1216.00
2023-05-10T03:26:30.067Z,1209.00
2023-05-10T03:27:30.075Z,1219.00
2023-05-10T03:28:30.114Z,1204.00
2023-05-10T03:29:30.125Z,1206.00
2023-05-10T03:30:30.158Z,1221.00
2023-05-10T03:31:30.165Z,1206.00
2023-05-10T03:32:30.210Z,1205.00
2023-05-10T03:33:30.206Z,1215.00
2023-05-10T03:34:30.195Z,1206.00
2023-05-10T03:35:30.297Z,1206.00
2023-05-10T03:36:30.307Z,1216.00
2023-05-10T03:37:30.290Z,1210.00
2023-05-10T03:38:30.735Z,1221.00
2023-05-10T03:39:30.332Z,1223.00
2023-05-10T03:40:30.327Z,1215.00
2023-05-10T03:41:30.370Z,1214.00
2023-05-10T03:42:30.427Z,1222.00
2023-05-10T03:43:30.486Z,1217.00
2023-05-10T03:44:30.551Z,1218.00
2023-05-10T03:45:30.571Z,1225.00
2023-05-10T03:46:30.654Z,1212.00
2023-05-10T03:47:30.741Z,1214.00
2023-05-10T03:48:30.644Z,1232.00
2023-05-10T03:49:30.657Z,1222.00
2023-05-10T03:50:30.639Z,1218.00
2023-05-10T03:51:30.646Z,1221.00
2023-05-10T03:52:30.668Z,1215.00
2023-05-10T03:53:30.708Z,1214.00
2023-05-10T03:54:30.684Z,1219.00
2023-05-10T03:55:30.688Z,1229.00
2023-05-10T03:56:30.728Z,1203.00
2023-05-10T03:57:30.717Z,1210.00
2023-05-10T03:58:30.711Z,1214.00
2023-05-10T03:59:30.791Z,1211.00
2023-05-10T04:00:30.872Z,1213.00
2023-05-10T04:01:30.880Z,1230.00
2023-05-10T04:02:31.160Z,1221.00
2023-05-10T04:03:31.063Z,1225.00
2023-05-10T04:04:31.064Z,1215.00
2023-05-10T04:05:31.099Z,1223.00
2023-05-10T04:06:31.215Z,1211.00
2023-05-10T04:07:31.256Z,1230.00
2023-05-10T04:08:31.273Z,1226.00
2023-05-10T04:09:31.348Z,1217.00
2023-05-10T04:10:31.403Z,1236.00
2023-05-10T04:11:31.484Z,1223.00
2023-05-10T04:12:31.513Z,1223.00
2023-05-10T04:13:31.603Z,1222.00
2023-05-10T04:14:31.630Z,1226.00
2023-05-10T04:15:31.719Z,1226.00
2023-05-10T04:16:31.782Z,1216.00
2023-05-10T04:17:31.860Z,1229.00
2023-05-10T04:18:31.860Z,1215.00
2023-05-10T04:19:31.946Z,1218.00
2023-05-10T04:20:32.007Z,1229.00
2023-05-10T04:21:32.066Z,1230.00
2023-05-10T04:22:32.085Z,1224.00
2023-05-10T04:23:32.189Z,1221.00
2023-05-10T04:24:32.238Z,1224.00
2023-05-10T04:25:32.300Z,1213.00
2023-05-10T04:26:32.384Z,1221.00
2023-05-10T04:27:32.391Z,1232.00
2023-05-10T04:28:32.440Z,1219.00
2023-05-10T04:29:32.525Z,1218.00
2023-05-10T04:30:32.583Z,1227.00
2023-05-10T04:31:32.541Z,1231.00
2023-05-10T04:32:32.615Z,1215.00
2023-05-10T04:33:32.579Z,1216.00
2023-05-10T04:34:32.590Z,1222.00
2023-05-10T04:35:32.621Z,1215.00
2023-05-10T04:36:32.644Z,1220.00
2023-05-10T04:37:32.700Z,1228.00
2023-05-10T04:38:32.744Z,1228.00
2023-05-10T04:39:32.802Z,1225.00
2023-05-10T04:40:32.868Z,1224.00
2023-05-10T04:41:32.911Z,1218.00
2023-05-10T04:42:32.971Z,1210.00
2023-05-10T04:43:33.036Z,1221.00
2023-05-10T04:44:33.108Z,1217.00
2023-05-10T04:45:33.141Z,1235.00
2023-05-10T04:46:33.216Z,1217.00
2023-05-10T04:47:33.295Z,1213.00
2023-05-10T04:48:33.321Z,1220.00
2023-05-10T04:49:33.368Z,1214.00
2023-05-10T04:50:33.385Z,1209.00
2023-05-10T04:51:33.391Z,1216.00
2023-05-10T04:52:33.440Z,1203.00
2023-05-10T04:53:33.448Z,1216.00
2023-05-10T04:54:33.435Z,1210.00
2023-05-10T04:55:33.435Z,1205.00
2023-05-10T04:56:33.494Z,1221.00
2023-05-10T04:57:33.460Z,1211.00
2023-05-10T04:58:33.460Z,1219.00
2023-05-10T04:59:33.476Z,1213.00
2023-05-10T05:00:33.493Z,1209.00
2023-05-10T05:01:40.501Z,1206.00
2023-05-10T05:02:33.602Z,1208.00
2023-05-10T05:03:33.583Z,1212.00
2023-05-10T05:04:33.521Z,1211.00
2023-05-10T05:05:33.487Z,1208.00
2023-05-10T05:06:33.459Z,1212.00
2023-05-10T05:07:33.462Z,1199.00
2023-05-10T05:08:33.468Z,1216.00
2023-05-10T05:09:33.445Z,1208.00
2023-05-10T05:10:33.459Z,1212.00
2023-05-10T05:11:33.455Z,1208.00
2023-05-10T05:12:33.406Z,1222.00
2023-05-10T05:13:33.460Z,1221.00
2023-05-10T05:14:33.428Z,1206.00
2023-05-10T05:15:33.420Z,1202.00
2023-05-10T05:16:33.408Z,1202.00
2023-05-10T05:17:33.468Z,1208.00
2023-05-10T05:18:33.406Z,1217.00
2023-05-10T05:19:33.380Z,1205.00
2023-05-10T05:20:33.369Z,1200.00
2023-05-10T05:21:33.359Z,1208.00
2023-05-10T05:22:33.359Z,1205.00
2023-05-10T05:23:33.410Z,1200.00
2023-05-10T05:24:33.431Z,1199.00
2023-05-10T05:25:33.359Z,1191.00
2023-05-10T05:26:33.358Z,1191.00
2023-05-10T05:27:33.324Z,1195.00
2023-05-10T05:28:33.367Z,1191.00
2023-05-10T05:29:33.309Z,1199.00
2023-05-10T05:30:33.295Z,1200.00
2023-05-10T05:31:33.382Z,1189.00
2023-05-10T05:32:33.326Z,1193.00
2023-05-10T05:33:33.275Z,1187.00
2023-05-10T05:34:33.292Z,1207.00
2023-05-10T05:35:33.306Z,1235.00
2023-05-10T05:36:33.267Z,1264.00
2023-05-10T05:37:33.286Z,1257.00
2023-05-10T05:38:33.445Z,1404.00
2023-05-10T05:39:33.272Z,1507.00
2023-05-10T05:40:33.258Z,1580.00
2023-05-10T05:41:33.229Z,1486.00
2023-05-10T05:42:33.226Z,1470.00
2023-05-10T05:43:34.576Z,1564.00
2023-05-10T05:44:33.231Z,1552.00
2023-05-10T05:45:40.255Z,1552.00
2023-05-10T05:46:33.224Z,1555.00
2023-05-10T05:47:33.213Z,1560.00
2023-05-10T05:48:33.494Z,1587.00
2023-05-10T05:49:33.197Z,1631.00
2023-05-10T05:50:33.184Z,1652.00
2023-05-10T05:51:33.191Z,1802.00
2023-05-10T05:52:33.168Z,1959.00
2023-05-10T05:53:33.177Z,1889.00
2023-05-10T05:54:33.469Z,1806.00
2023-05-10T05:55:33.135Z,1821.00
2023-05-10T05:56:33.136Z,1825.00
2023-05-10T05:57:33.137Z,1799.00
2023-05-10T05:58:33.124Z,1801.00
2023-05-10T05:59:33.463Z,1747.00
2023-05-10T06:00:33.101Z,1713.00
2023-05-10T06:01:33.113Z,1685.00
2023-05-10T06:02:33.200Z,1671.00
2023-05-10T06:03:33.112Z,1675.00
2023-05-10T06:04:33.173Z,1665.00
2023-05-10T06:05:33.082Z,1664.00
2023-05-10T06:06:33.087Z,1634.00
2023-05-10T06:07:33.104Z,1621.00
2023-05-10T06:08:33.054Z,1597.00
2023-05-10T06:09:33.485Z,1582.00
2023-05-10T06:10:33.041Z,1583.00
2023-05-10T06:11:33.023Z,1554.00
2023-05-10T06:12:33.026Z,1525.00
2023-05-10T06:13:33.273Z,1492.00
2023-05-10T06:14:33.021Z,1484.00
2023-05-10T06:15:33.022Z,1472.00
2023-05-10T06:16:33.102Z,1448.00
2023-05-10T06:17:33.102Z,1448.00
2023-05-10T06:18:33.109Z,1433.00
2023-05-10T06:19:33.138Z,1386.00
2023-05-10T06:20:33.164Z,1341.00
2023-05-10T06:21:33.175Z,1311.00
2023-05-10T06:22:33.197Z,1322.00
2023-05-10T06:23:33.221Z,1325.00
2023-05-10T06:24:33.490Z,1311.00
2023-05-10T06:25:33.217Z,1309.00
2023-05-10T06:26:33.239Z,1318.00
2023-05-10T06:27:33.294Z,1335.00
2023-05-10T06:28:33.311Z,1324.00
2023-05-10T06:29:33.351Z,1325.00
2023-05-10T06:30:33.376Z,1317.00
2023-05-10T06:31:33.419Z,1311.00
2023-05-10T06:32:33.498Z,1287.00
2023-05-10T06:33:33.447Z,1285.00
2023-05-10T06:34:33.491Z,1294.00
2023-05-10T06:35:33.503Z,1305.00
2023-05-10T06:36:33.578Z,1303.00
2023-05-10T06:37:33.630Z,1293.00
2023-05-10T06:38:33.636Z,1263.00
2023-05-10T06:39:33.710Z,1234.00
2023-05-10T06:40:33.707Z,1216.00
2023-05-10T06:41:33.704Z,1180.00
2023-05-10T06:42:33.716Z,1201.00
2023-05-10T06:43:33.720Z,1171.00
2023-05-10T06:44:33.694Z,1131.00
2023-05-10T06:45:33.726Z,1150.00
2023-05-10T06:46:33.825Z,1153.00
2023-05-10T06:47:34.757Z,1175.00
2023-05-10T06:48:34.087Z,1166.00
2023-05-10T06:49:34.124Z,1198.00
2023-05-10T06:50:34.152Z,1201.00
2023-05-10T06:51:34.172Z,1213.00
2023-05-10T06:52:34.183Z,1225.00
2023-05-10T06:53:34.196Z,1225.00
2023-05-10T06:54:34.173Z,1231.00
2023-05-10T06:55:34.184Z,1226.00
2023-05-10T06:56:34.141Z,1195.00
2023-05-10T06:57:34.177Z,1192.00
2023-05-10T06:58:34.154Z,1220.00
2023-05-10T06:59:34.304Z,1208.00
2023-05-10T07:00:34.204Z,1176.00
2023-05-10T07:01:34.180Z,1172.00
2023-05-10T07:02:34.278Z,1144.00
2023-05-10T07:03:34.168Z,1159.00
2023-05-10T07:04:34.190Z,1106.00
2023-05-10T07:05:34.218Z,1112.00
2023-05-10T07:06:34.177Z,1093.00
2023-05-10T07:07:34.226Z,1083.00
2023-05-10T07:08:34.296Z,1060.00
2023-05-10T07:09:34.302Z,1046.00
2023-05-10T07:10:34.419Z,990.00
2023-05-10T07:11:34.418Z,1014.00
2023-05-10T07:12:34.508Z,1003.00
2023-05-10T07:13:34.536Z,1021.00
2023-05-10T07:14:34.610Z,1012.00
2023-05-10T07:15:34.622Z,996.00
2023-05-10T07:16:34.755Z,1022.00
2023-05-10T07:17:34.812Z,1017.00
2023-05-10T07:18:34.784Z,977.00
2023-05-10T07:19:34.815Z,1003.00
2023-05-10T07:20:35.032Z,1032.00
2023-05-10T07:21:34.908Z,1011.00
2023-05-10T07:22:34.944Z,981.00
2023-05-10T07:23:34.974Z,938.00
2023-05-10T07:24:35.102Z,918.00
2023-05-10T07:25:35.055Z,925.00
2023-05-10T07:26:35.108Z,908.00
2023-05-10T07:27:35.157Z,855.00
2023-05-10T07:28:35.259Z,814.00
2023-05-10T07:29:35.255Z,810.00
2023-05-10T07:30:35.349Z,801.00
2023-05-10T07:31:35.387Z,773.00
2023-05-10T07:32:35.507Z,796.00
2023-05-10T07:33:35.498Z,787.00
2023-05-10T07:34:35.499Z,714.00
2023-05-10T07:35:35.577Z,701.00
2023-05-10T07:36:35.574Z,711.00
2023-05-10T07:37:35.550Z,666.00
2023-05-10T07:38:35.566Z,655.00
2023-05-10T07:39:35.563Z,652.00
2023-05-10T07:40:35.583Z,643.00
2023-05-10T07:41:35.927Z,631.00
2023-05-10T07:42:35.559Z,623.00
2023-05-10T07:43:35.552Z,644.00
2023-05-10T07:44:35.571Z,742.00
2023-05-10T07:45:35.572Z,815.00
2023-05-10T07:46:35.543Z,807.00
2023-05-10T07:47:35.603Z,834.00
2023-05-10T07:48:35.595Z,881.00
2023-05-10T07:49:35.544Z,885.00
2023-05-10T07:50:36.021Z,856.00
2023-05-10T07:51:35.577Z,782.00
2023-05-10T07:52:35.618Z,812.00
2023-05-10T07:53:35.628Z,806.00
2023-05-10T07:54:35.678Z,708.00
2023-05-10T07:55:35.747Z,666.00
2023-05-10T07:56:35.752Z,694.00
2023-05-10T07:57:35.791Z,763.00
2023-05-10T07:58:35.865Z,771.00
2023-05-10T07:59:35.880Z,683.00
2023-05-10T08:00:36.008Z,648.00
2023-05-10T08:01:35.974Z,632.00
2023-05-10T08:02:36.049Z,589.00
2023-05-10T08:03:36.156Z,574.00
2023-05-10T08:04:36.172Z,575.00
2023-05-10T08:05:36.088Z,553.00
2023-05-10T08:06:36.157Z,523.00
2023-05-10T08:07:36.216Z,508.00
2023-05-10T08:08:36.276Z,513.00
2023-05-10T08:09:36.302Z,500.00
2023-05-10T08:10:36.364Z,500.00
2023-05-10T08:11:36.399Z,507.00
2023-05-10T08:12:36.428Z,502.00
2023-05-10T08:13:36.388Z,506.00
2023-05-10T08:14:36.403Z,511.00
2023-05-10T08:15:36.567Z,496.00
2023-05-10T08:16:36.830Z,500.00
2023-05-10T08:17:36.455Z,511.00
2023-05-10T08:18:36.498Z,528.00
2023-05-10T08:19:36.478Z,566.00
2023-05-10T08:20:36.505Z,562.00
2023-05-10T08:21:36.546Z,562.00
2023-05-10T08:22:36.549Z,592.00
2023-05-10T08:23:36.514Z,607.00
2023-05-10T08:24:36.565Z,623.00
2023-05-10T08:25:36.537Z,626.00
2023-05-10T08:26:36.650Z,636.00
2023-05-10T08:27:36.571Z,629.00
2023-05-10T08:28:36.581Z,634.00
2023-05-10T08:29:48.850Z,675.00
2023-05-10T08:30:38.044Z,682.00
2023-05-10T08:31:36.620Z,725.00
2023-05-10T08:32:36.661Z,862.00
2023-05-10T08:33:36.578Z,1051.00
2023-05-10T08:34:36.614Z,1311.00
2023-05-10T08:35:37.056Z,1261.00
2023-05-10T08:36:36.538Z,1369.00
2023-05-10T08:37:36.547Z,1402.00
2023-05-10T08:38:36.562Z,1403.00
2023-05-10T08:39:36.512Z,1406.00
2023-05-10T08:40:36.523Z,1420.00
2023-05-10T08:41:36.523Z,1504.00
2023-05-10T08:42:36.477Z,1595.00
2023-05-10T08:43:36.490Z,1722.00
2023-05-10T08:44:36.491Z,1829.00
2023-05-10T08:45:36.492Z,1594.00
2023-05-10T08:46:36.512Z,1529.00
2023-05-10T08:47:36.521Z,1534.00
2023-05-10T08:48:36.481Z,1438.00
2023-05-10T08:49:36.540Z,1463.00
2023-05-10T08:50:36.612Z,1452.00
2023-05-10T08:51:36.638Z,1511.00
2023-05-10T08:52:36.741Z,1636.00
2023-05-10T08:53:36.766Z,1606.00
2023-05-10T08:54:36.831Z,1829.00
2023-05-10T08:55:36.851Z,1931.00
2023-05-10T08:56:36.928Z,1913.00
2023-05-10T08:57:37.001Z,1975.00
2023-05-10T08:58:37.001Z,2078.00
2023-05-10T08:59:37.080Z,2098.00
2023-05-10T09:00:37.174Z,2088.00
2023-05-10T09:01:37.150Z,2090.00
2023-05-10T09:02:37.220Z,2095.00
2023-05-10T09:03:37.268Z,2119.00
2023-05-10T09:04:37.435Z,2179.00
2023-05-10T09:05:37.562Z,2223.00
2023-05-10T09:06:37.378Z,2153.00
2023-05-10T09:07:37.368Z,2207.00
2023-05-10T09:08:37.401Z,2231.00
2023-05-10T09:09:37.425Z,2284.00
2023-05-10T09:10:37.437Z,2289.00
2023-05-10T09:11:37.495Z,2315.00
2023-05-10T09:12:37.584Z,2350.00
2023-05-10T09:13:37.628Z,2324.00
2023-05-10T09:14:37.644Z,2313.00
2023-05-10T09:15:37.678Z,2307.00
2023-05-10T09:16:37.771Z,2308.00
2023-05-10T09:17:37.753Z,2290.00
2023-05-10T09:18:37.823Z,2277.00
2023-05-10T09:19:37.925Z,2285.00
2023-05-10T09:20:38.087Z,2344.00
2023-05-10T09:21:37.997Z,2388.00
2023-05-10T09:22:38.038Z,2316.00
2023-05-10T09:23:38.045Z,2337.00
2023-05-10T09:24:38.067Z,2347.00
2023-05-10T09:25:38.560Z,2325.00
2023-05-10T09:26:38.163Z,2353.00
2023-05-10T09:27:38.130Z,2368.00
2023-05-10T09:28:38.168Z,2385.00
2023-05-10T09:29:38.178Z,2367.00
2023-05-10T09:30:38.597Z,2356.00
2023-05-10T09:31:38.228Z,2335.00
2023-05-10T09:32:38.334Z,2356.00
2023-05-10T09:33:38.375Z,2370.00
2023-05-10T09:34:38.418Z,2402.00
2023-05-10T09:35:38.592Z,2375.00
2023-05-10T09:36:38.559Z,2339.00
2023-05-10T09:37:38.577Z,2350.00
2023-05-10T09:38:38.646Z,2402.00
2023-05-10T09:39:38.661Z,2417.00
2023-05-10T09:40:39.132Z,2409.00
2023-05-10T09:41:38.792Z,2393.00
2023-05-10T09:42:38.797Z,2395.00
2023-05-10T09:43:38.786Z,2420.00
2023-05-10T09:44:38.797Z,2437.00
2023-05-10T09:45:39.370Z,2382.00
2023-05-10T09:46:39.015Z,2344.00
2023-05-10T09:47:38.860Z,2387.00
2023-05-10T09:48:38.828Z,2405.00
2023-05-10T09:49:38.851Z,2418.00
2023-05-10T09:50:38.918Z,2415.00
2023-05-10T09:51:39.012Z,2431.00
2023-05-10T09:52:38.957Z,2334.00
2023-05-10T09:53:39.031Z,2286.00
2023-05-10T09:54:39.077Z,2295.00
2023-05-10T09:55:39.046Z,2251.00
2023-05-10T09:56:39.065Z,2152.00
2023-05-10T09:57:39.099Z,2016.00
2023-05-10T09:58:39.080Z,1943.00
2023-05-10T09:59:39.109Z,1795.00
2023-05-10T10:00:39.120Z,1789.00
2023-05-10T10:01:39.194Z,1735.00
2023-05-10T10:02:39.166Z,1683.00
2023-05-10T10:03:39.194Z,1674.00
2023-05-10T10:04:39.187Z,1559.00
2023-05-10T10:05:39.198Z,1396.00
2023-05-10T10:06:39.243Z,1358.00
2023-05-10T10:07:39.280Z,1274.00
2023-05-10T10:08:39.309Z,1316.00
2023-05-10T10:09:39.352Z,1331.00
2023-05-10T10:10:39.334Z,1403.00
2023-05-10T10:11:39.575Z,1458.00
2023-05-10T10:12:39.448Z,1486.00
2023-05-10T10:13:39.472Z,1475.00
2023-05-10T10:14:39.505Z,1487.00
2023-05-10T10:15:39.600Z,1409.00
2023-05-10T10:16:45.981Z,1411.00
2023-05-10T10:17:40.599Z,1380.00
2023-05-10T10:18:39.586Z,1376.00
2023-05-10T10:19:39.582Z,1304.00
2023-05-10T10:20:39.539Z,1319.00
2023-05-10T10:21:39.604Z,1302.00
2023-05-10T10:22:39.518Z,1321.00
2023-05-10T10:23:39.532Z,1299.00
2023-05-10T10:24:39.518Z,1293.00
2023-05-10T10:25:39.529Z,1290.00
2023-05-10T10:26:39.482Z,1278.00
2023-05-10T10:27:39.580Z,1282.00
2023-05-10T10:28:39.492Z,1221.00
2023-05-10T10:29:39.486Z,1171.00
2023-05-10T10:30:39.482Z,1122.00
2023-05-10T10:31:39.522Z,1062.00
2023-05-10T10:32:39.536Z,1050.00
2023-05-10T10:33:39.503Z,1011.00
2023-05-10T10:34:39.544Z,1013.00
2023-05-10T10:35:39.545Z,1130.00
2023-05-10T10:36:40.118Z,1125.00
2023-05-10T10:37:39.602Z,1101.00
2023-05-10T10:38:39.655Z,1153.00
2023-05-10T10:39:39.659Z,1211.00
2023-05-10T10:40:39.698Z,1224.00
2023-05-10T10:41:40.114Z,1286.00
2023-05-10T10:42:39.787Z,1266.00
2023-05-10T10:43:39.791Z,1159.00
2023-05-10T10:44:39.780Z,1059.00
2023-05-10T10:45:41.973Z,950.00
2023-05-10T10:46:41.121Z,951.00
2023-05-10T10:47:40.186Z,954.00
2023-05-10T10:48:40.127Z,945.00
2023-05-10T10:49:40.151Z,944.00
2023-05-10T10:50:40.125Z,916.00
2023-05-10T10:51:40.144Z,815.00
2023-05-10T10:52:40.302Z,803.00
2023-05-10T10:53:40.257Z,763.00
2023-05-10T10:54:40.265Z,792.00
2023-05-10T10:55:40.349Z,731.00
2023-05-10T10:56:40.356Z,718.00
2023-05-10T10:57:40.355Z,770.00
2023-05-10T10:58:40.396Z,789.00
2023-05-10T10:59:40.442Z,728.00
2023-05-10T11:00:40.608Z,831.00
2023-05-10T11:01:40.546Z,826.00
2023-05-10T11:02:40.543Z,743.00
2023-05-10T11:03:40.536Z,719.00
2023-05-10T11:04:40.553Z,630.00
2023-05-10T11:05:40.507Z,595.00
2023-05-10T11:06:40.532Z,624.00
2023-05-10T11:07:40.608Z,639.00
2023-05-10T11:08:40.512Z,637.00
2023-05-10T11:09:40.528Z,664.00
2023-05-10T11:10:40.529Z,765.00
2023-05-10T11:11:40.505Z,737.00
2023-05-10T11:12:40.510Z,661.00
2023-05-10T11:13:40.582Z,620.00
2023-05-10T11:14:40.588Z,567.00
2023-05-10T11:15:40.497Z,537.00
2023-05-10T11:16:40.543Z,512.00
2023-05-10T11:17:40.611Z,500.00
2023-05-10T11:18:40.509Z,518.00
2023-05-10T11:19:40.521Z,500.00
2023-05-10T11:20:40.534Z,503.00
2023-05-10T11:21:40.504Z,499.00
2023-05-10T11:22:40.484Z,519.00
2023-05-10T11:23:40.513Z,527.00
2023-05-10T11:24:40.588Z,554.00
2023-05-10T11:25:40.512Z,563.00
2023-05-10T11:26:40.491Z,575.00
2023-05-10T11:27:40.611Z,603.00
2023-05-10T11:28:40.491Z,623.00
2023-05-10T11:29:40.612Z,658.00
2023-05-10T11:30:41.683Z,661.00
2023-05-10T11:31:40.561Z,685.00
2023-05-10T11:32:40.633Z,766.00
2023-05-10T11:33:40.536Z,911.00
2023-05-10T11:34:40.542Z,1133.00
2023-05-10T11:35:43.154Z,1201.00
2023-05-10T11:36:40.519Z,1275.00
2023-05-10T11:37:41.136Z,1308.00
2023-05-10T11:38:40.532Z,1331.00
2023-05-10T11:39:40.526Z,1394.00
2023-05-10T11:40:40.528Z,1420.00
2023-05-10T11:41:42.336Z,1458.00
2023-05-10T11:42:40.566Z,1459.00
2023-05-10T11:43:40.547Z,1469.00
2023-05-10T11:44:40.561Z,1502.00
2023-05-10T11:45:40.565Z,1557.00
2023-05-10T11:46:40.609Z,1658.00
2023-05-10T11:47:42.669Z,1686.00
2023-05-10T11:48:40.610Z,1680.00
2023-05-10T11:49:40.652Z,1699.00
2023-05-10T11:50:40.661Z,1721.00
2023-05-10T11:51:40.737Z,1719.00
2023-05-10T11:52:40.775Z,1733.00
2023-05-10T11:53:40.858Z,1726.00
2023-05-10T11:54:40.880Z,1740.00
2023-05-10T11:55:40.979Z,1752.00
2023-05-10T11:56:41.003Z,1760.00
2023-05-10T11:57:41.106Z,1762.00
2023-05-10T11:58:41.067Z,1749.00
2023-05-10T11:59:43.092Z,1762.00
2023-05-10T12:00:41.215Z,1776.00
2023-05-10T12:01:41.276Z,1778.00
2023-05-10T12:02:41.366Z,1759.00
2023-05-10T12:03:41.514Z,1784.00
2023-05-10T12:04:41.439Z,1792.00
2023-05-10T12:05:42.893Z,1806.00
2023-05-10T12:06:41.441Z,1804.00
2023-05-10T12:07:41.500Z,1826.00
2023-05-10T12:08:41.561Z,1820.00
2023-05-10T12:09:44.013Z,1829.00